Oxford, MI (48371)

10:12 AM EDT on September 01, 2015 (GMT -0400)
Hills of Oxford Condos (North M24 Oxford/Lake Orion) | | Change Station
CLOSE
Current Station
Personal Weather Station
Location: Oxford, MI
Elevation: 1020 ft
Nearby Weather Stations

Elev 1020 ft 42.80 °N, 83.25 °W | Updated 23 seconds ago

Clear
Clear
76.6 °F
Feels Like 77 °F
N
0.0
Wind Variable Wind from South
Gusts 0.0 mph

Today
High -- | Low -- °F
--% Chance of Precip.
Yesterday
High -- | Low -- °F
Precip. -- in
6:57 AM 8:08 PM
Waning Gibbous, 88% visible
Pressure 30.09 in
Visibility 8.0 miles
Clouds Clear
Heat Index 77 °F
Dew Point 73 °F
Humidity 88%
Rainfall 0.00 in
Snow Depth Not available.
UV 3 out of 12
Pollen 10.60 out of 12
Air Quality Not available.
Flu Activity Not available.
METAR KPTK 011353Z 24003KT 8SM CLR 23/19 A3010 RMK AO2 SLP188 T02330194
Pressure 30.09 in
Visibility 8.0 miles
Clouds Clear
Heat Index 77 °F
Dew Point 73 °F
Humidity 88%
Rainfall 0.00 in
Snow Depth Not available.
UV 3 out of 12
Pollen 10.60 out of 12
Air Quality Not available.
Flu Activity Not available.
METAR KPTK 011353Z 24003KT 8SM CLR 23/19 A3010 RMK AO2 SLP188 T02330194

10-Day Weather Forecast

×

Almanac

Astronomy

Sep. 01, 2015 Rise Set
Actual Time
Civil Twilight
Nautical Twilight
Astronomical Twilight
Moon
Length of Visible Light
Length of Day
Tomorrow will be .
, % of the Moon is Illuminated

Today's Extremes

State Highs State Lows

Community

WunderPhotos

Upload Photos

1,851,512 photos uploaded!

WunderBlogs® & News

Nearby

Air Quality

  Air Quality AQ Index Pollutant
Not available.

Snow Depth

Station Depth Elevation

Earthquake Activity

City Distance Mag. Time & Date
Minimum magnitude displayed is 2.5.

Coastal Water Temperatures

Place Temperature

Stations

Nearby Weather Stations

Station Location Temp. Windchill Dew Point Humidity Wind Precip. Elev Updated Type